Time;durP1;ratioP1;P1;durP2;ratioP2;P2;SDS_P1;SDS_P2;PMS_P1;PMS_P2;Temp;Humidity;BMP_temperature;BMP_pressure;BME280_temperature;BME280_humidity;BME280_pressure;Samples;Min_cycle;Max_cycle;Signal;HPM_P1;HPM_P2
2021/08/04 00:01:56;;;;;;;4.00;1.53;;;;;;;;;;4976280;28;20038;-71
2021/08/04 00:04:21;;;;;;;4.10;2.15;;;;;;;;;;4967122;28;20757;-70
2021/08/04 00:06:46;;;;;;;3.63;1.70;;;;;;;;;;4977194;28;20030;-71
2021/08/04 00:09:11;;;;;;;8.57;1.88;;;;;;;;;;4970920;28;20356;-71
2021/08/04 00:11:36;;;;;;;6.25;2.00;;;;;;;;;;4968543;28;20069;-70
2021/08/04 00:14:02;;;;;;;3.20;2.10;;;;;;;;;;4970239;28;20368;-70
2021/08/04 00:16:28;;;;;;;3.97;2.05;;;;;;;;;;4966527;28;20043;-70
2021/08/04 00:18:53;;;;;;;2.92;2.00;;;;;;;;;;4966221;28;20128;-70
2021/08/04 00:21:18;;;;;;;3.00;1.98;;;;;;;;;;4975580;28;20053;-71
2021/08/04 00:23:43;;;;;;;3.50;1.85;;;;;;;;;;4971225;28;20031;-70
2021/08/04 00:26:09;;;;;;;4.10;2.05;;;;;;;;;;4972341;28;20155;-70
2021/08/04 00:28:34;;;;;;;4.15;2.10;;;;;;;;;;4967358;28;20022;-70
2021/08/04 00:30:59;;;;;;;3.33;1.73;;;;;;;;;;4971095;28;20027;-69
2021/08/04 00:33:24;;;;;;;5.65;1.90;;;;;;;;;;4969003;28;20052;-69
2021/08/04 00:35:49;;;;;;;4.30;2.00;;;;;;;;;;4968888;28;20398;-69
2021/08/04 00:38:15;;;;;;;3.67;1.90;;;;;;;;;;4965128;28;20274;-70
2021/08/04 00:40:41;;;;;;;3.05;1.80;;;;;;;;;;4970389;28;20022;-70
2021/08/04 00:43:06;;;;;;;4.63;2.63;;;;;;;;;;4978228;28;20580;-69
2021/08/04 00:45:32;;;;;;;3.67;2.00;;;;;;;;;;4970157;28;20023;-70
2021/08/04 00:47:57;;;;;;;3.88;2.03;;;;;;;;;;4975272;28;20023;-70
2021/08/04 00:50:23;;;;;;;3.95;1.92;;;;;;;;;;4970722;28;20025;-70
2021/08/04 00:52:49;;;;;;;2.70;1.83;;;;;;;;;;4972236;28;20022;-70
2021/08/04 00:55:14;;;;;;;3.40;1.83;;;;;;;;;;4980881;28;20037;-69
2021/08/04 00:57:39;;;;;;;2.83;1.83;;;;;;;;;;4969488;28;20036;-69
2021/08/04 01:00:05;;;;;;;3.40;2.30;;;;;;;;;;4969181;28;20023;-70
2021/08/04 01:02:33;;;;;;;4.10;2.17;;;;;;;;;;4967477;28;20058;-70
2021/08/04 01:05:25;;;;;;;5.03;2.40;;;;;;;;;;4967777;28;20026;-70
2021/08/04 01:08:10;;;;;;;4.00;2.05;;;;;;;;;;4966449;28;20082;-69
2021/08/04 01:10:38;;;;;;;3.30;2.22;;;;;;;;;;4973141;28;20070;-70
2021/08/04 01:13:11;;;;;;;4.53;2.20;;;;;;;;;;4968378;28;20510;-71
2021/08/04 01:15:39;;;;;;;3.53;2.10;;;;;;;;;;4969253;28;20121;-69
2021/08/04 01:18:05;;;;;;;4.30;2.35;;;;;;;;;;4974903;28;20022;-70
2021/08/04 01:20:30;;;;;;;4.50;2.30;;;;;;;;;;4968397;28;20106;-70
2021/08/04 01:22:55;;;;;;;4.10;2.35;;;;;;;;;;4970376;28;20106;-70
2021/08/04 01:25:23;;;;;;;4.03;2.25;;;;;;;;;;4965682;28;20026;-70
2021/08/04 01:27:50;;;;;;;3.45;1.85;;;;;;;;;;4966482;28;20905;-70
2021/08/04 01:30:15;;;;;;;9.15;2.40;;;;;;;;;;4971009;28;20430;-71
2021/08/04 01:32:41;;;;;;;6.45;2.40;;;;;;;;;;4970440;28;20038;-70
2021/08/04 01:35:06;;;;;;;7.25;2.30;;;;;;;;;;4965105;28;20015;-70
2021/08/04 01:37:34;;;;;;;5.60;2.20;;;;;;;;;;4965276;28;20039;-70
2021/08/04 01:39:59;;;;;;;3.80;2.33;;;;;;;;;;4970311;28;20026;-69
2021/08/04 01:42:26;;;;;;;3.88;2.50;;;;;;;;;;4972521;28;20025;-69
2021/08/04 01:44:53;;;;;;;6.45;2.15;;;;;;;;;;4962494;28;20029;-70
2021/08/04 01:47:19;;;;;;;3.55;2.38;;;;;;;;;;4969931;28;20130;-69
2021/08/04 01:49:45;;;;;;;3.75;2.33;;;;;;;;;;4965980;28;20113;-69
2021/08/04 01:52:10;;;;;;;4.75;2.45;;;;;;;;;;4969561;28;20105;-70
2021/08/04 01:54:35;;;;;;;4.53;2.67;;;;;;;;;;4969429;28;20038;-70
2021/08/04 01:57:01;;;;;;;4.22;2.08;;;;;;;;;;4975153;28;20042;-70
2021/08/04 01:59:26;;;;;;;5.68;2.83;;;;;;;;;;4969288;28;20101;-71
2021/08/04 02:01:52;;;;;;;4.22;2.42;;;;;;;;;;4966732;28;20055;-70
2021/08/04 02:04:17;;;;;;;4.50;2.47;;;;;;;;;;4964852;28;20082;-69
2021/08/04 02:06:45;;;;;;;3.55;2.13;;;;;;;;;;4968457;28;20023;-69
2021/08/04 02:09:19;;;;;;;3.47;2.22;;;;;;;;;;4968636;28;20023;-70
2021/08/04 02:11:48;;;;;;;5.13;2.30;;;;;;;;;;4967027;28;20101;-70
2021/08/04 02:14:18;;;;;;;4.50;2.38;;;;;;;;;;4969981;28;20027;-69
2021/08/04 02:16:53;;;;;;;4.55;2.38;;;;;;;;;;4967338;28;20035;-70
2021/08/04 02:19:29;;;;;;;3.58;2.38;;;;;;;;;;4969966;28;20026;-70
2021/08/04 02:21:58;;;;;;;4.28;2.17;;;;;;;;;;4969584;28;20018;-70
2021/08/04 02:24:24;;;;;;;3.95;2.63;;;;;;;;;;4966664;28;20015;-70
2021/08/04 02:26:51;;;;;;;3.97;2.40;;;;;;;;;;4972030;28;20053;-70
2021/08/04 02:29:17;;;;;;;3.83;2.45;;;;;;;;;;4974469;28;20022;-69
2021/08/04 02:31:43;;;;;;;3.95;2.40;;;;;;;;;;4968215;28;20019;-70
2021/08/04 02:34:08;;;;;;;5.18;2.58;;;;;;;;;;4969375;28;20025;-70
2021/08/04 02:36:33;;;;;;;6.43;2.17;;;;;;;;;;4970098;28;20038;-70
2021/08/04 02:39:01;;;;;;;5.55;2.60;;;;;;;;;;4966778;28;20019;-70
2021/08/04 02:41:28;;;;;;;4.47;2.17;;;;;;;;;;4970038;28;20478;-70
2021/08/04 02:43:53;;;;;;;4.80;2.22;;;;;;;;;;4967575;28;20054;-70
2021/08/04 02:46:18;;;;;;;5.63;2.75;;;;;;;;;;4969653;28;20027;-70
2021/08/04 02:48:43;;;;;;;5.07;2.72;;;;;;;;;;4968580;28;20483;-70
2021/08/04 02:51:10;;;;;;;5.03;2.70;;;;;;;;;;4968133;28;20034;-70
2021/08/04 02:53:35;;;;;;;5.82;2.40;;;;;;;;;;4969048;28;20019;-70
2021/08/04 02:56:00;;;;;;;4.07;2.00;;;;;;;;;;4974814;28;20089;-69
2021/08/04 02:58:25;;;;;;;3.92;2.20;;;;;;;;;;4968723;28;20026;-70
2021/08/04 03:00:51;;;;;;;6.57;2.30;;;;;;;;;;4956828;28;20030;-70
2021/08/04 03:03:17;;;;;;;3.95;2.30;;;;;;;;;;4963592;28;20022;-70
2021/08/04 03:05:42;;;;;;;4.30;2.00;;;;;;;;;;4973906;28;20027;-70
2021/08/04 03:08:07;;;;;;;4.32;2.35;;;;;;;;;;4968362;28;20055;-70
2021/08/04 03:10:32;;;;;;;4.80;2.50;;;;;;;;;;4969329;28;20058;-69
2021/08/04 03:12:58;;;;;;;4.00;2.30;;;;;;;;;;4969243;28;20054;-69
2021/08/04 03:15:23;;;;;;;3.35;2.30;;;;;;;;;;4964878;28;20118;-69
2021/08/04 03:17:48;;;;;;;3.92;2.50;;;;;;;;;;4970290;28;20031;-69
2021/08/04 03:20:14;;;;;;;7.80;2.50;;;;;;;;;;4973246;28;20128;-69
2021/08/04 03:22:46;;;;;;;4.82;2.22;;;;;;;;;;4972628;28;20034;-70
2021/08/04 03:25:12;;;;;;;4.25;2.22;;;;;;;;;;4967466;28;20022;-71
2021/08/04 03:27:37;;;;;;;4.28;2.65;;;;;;;;;;4972907;28;20534;-70
2021/08/04 03:30:02;;;;;;;3.88;2.20;;;;;;;;;;4973227;28;20520;-70
2021/08/04 03:32:28;;;;;;;4.40;2.40;;;;;;;;;;4972167;28;20290;-69
2021/08/04 03:34:53;;;;;;;5.18;2.55;;;;;;;;;;4972802;28;20049;-70
2021/08/04 03:37:18;;;;;;;4.95;2.50;;;;;;;;;;4971951;28;20828;-70
2021/08/04 03:39:43;;;;;;;5.50;2.50;;;;;;;;;;4973887;28;20078;-69
2021/08/04 03:42:08;;;;;;;3.55;2.13;;;;;;;;;;4968862;28;20755;-70
2021/08/04 03:44:33;;;;;;;4.10;2.50;;;;;;;;;;4972058;28;20291;-70
2021/08/04 03:46:59;;;;;;;4.10;2.42;;;;;;;;;;4971675;28;20769;-70
2021/08/04 03:49:24;;;;;;;5.63;2.67;;;;;;;;;;4972514;28;20019;-71
2021/08/04 03:51:49;;;;;;;3.88;2.20;;;;;;;;;;4972406;28;20034;-68
2021/08/04 03:54:14;;;;;;;4.70;2.63;;;;;;;;;;4972392;28;20041;-69
2021/08/04 03:56:39;;;;;;;3.92;2.40;;;;;;;;;;4972566;28;20302;-70
2021/08/04 03:59:05;;;;;;;5.15;2.53;;;;;;;;;;4972192;28;20078;-70
2021/08/04 04:01:30;;;;;;;6.13;2.60;;;;;;;;;;4974040;28;20093;-71
2021/08/04 04:03:55;;;;;;;4.17;2.60;;;;;;;;;;4970956;28;20026;-69
2021/08/04 04:06:20;;;;;;;4.32;2.45;;;;;;;;;;4971324;28;20752;-69
2021/08/04 04:08:45;;;;;;;4.35;2.58;;;;;;;;;;4971650;28;20022;-69
2021/08/04 04:11:11;;;;;;;7.57;2.60;;;;;;;;;;4970214;28;20037;-70
2021/08/04 04:13:36;;;;;;;4.00;2.83;;;;;;;;;;4971608;28;20414;-70
2021/08/04 04:16:01;;;;;;;8.15;2.92;;;;;;;;;;4970640;28;20073;-70
2021/08/04 04:18:26;;;;;;;5.65;2.88;;;;;;;;;;4972092;28;20015;-71
2021/08/04 04:20:51;;;;;;;6.53;2.90;;;;;;;;;;4971346;28;20027;-70
2021/08/04 04:23:17;;;;;;;4.43;2.60;;;;;;;;;;4971325;28;20054;-70
2021/08/04 04:25:42;;;;;;;3.67;2.55;;;;;;;;;;4967983;28;20022;-69
2021/08/04 04:28:07;;;;;;;4.20;2.50;;;;;;;;;;4971689;28;20704;-69
2021/08/04 04:30:32;;;;;;;4.32;2.45;;;;;;;;;;4972674;28;20073;-70
2021/08/04 04:32:57;;;;;;;5.03;2.97;;;;;;;;;;4971100;28;20027;-71
2021/08/04 04:35:23;;;;;;;5.22;2.30;;;;;;;;;;4968794;28;20026;-69
2021/08/04 04:37:48;;;;;;;5.43;2.78;;;;;;;;;;4970559;28;20386;-70
2021/08/04 04:40:13;;;;;;;4.97;2.45;;;;;;;;;;4971183;28;20034;-70
2021/08/04 04:42:38;;;;;;;5.18;2.13;;;;;;;;;;4971284;28;20134;-70
2021/08/04 04:45:04;;;;;;;3.53;2.10;;;;;;;;;;4970697;28;20073;-70
2021/08/04 04:47:29;;;;;;;4.20;2.00;;;;;;;;;;4972685;28;20765;-70
2021/08/04 04:49:54;;;;;;;2.70;1.90;;;;;;;;;;4970743;28;20034;-70
2021/08/04 04:52:19;;;;;;;4.57;2.00;;;;;;;;;;4970242;28;20274;-69
2021/08/04 04:54:44;;;;;;;4.35;2.00;;;;;;;;;;4971180;28;20082;-69
2021/08/04 04:57:10;;;;;;;3.90;1.80;;;;;;;;;;4971157;28;20031;-70
2021/08/04 04:59:35;;;;;;;4.47;1.67;;;;;;;;;;4971931;28;20108;-70
2021/08/04 05:02:00;;;;;;;3.33;1.95;;;;;;;;;;4977310;28;20494;-70
2021/08/04 05:04:25;;;;;;;2.88;1.80;;;;;;;;;;4971313;28;20023;-71
2021/08/04 05:06:50;;;;;;;4.35;2.08;;;;;;;;;;4967815;28;20027;-70
2021/08/04 05:09:16;;;;;;;6.05;2.40;;;;;;;;;;4971458;28;20022;-69
2021/08/04 05:11:41;;;;;;;4.38;1.92;;;;;;;;;;4969711;28;20026;-72
2021/08/04 05:14:06;;;;;;;4.53;2.40;;;;;;;;;;4966461;28;20056;-70
2021/08/04 05:16:31;;;;;;;4.80;1.70;;;;;;;;;;4970410;28;20070;-70
2021/08/04 05:18:56;;;;;;;3.53;2.10;;;;;;;;;;4970144;28;20026;-70
2021/08/04 05:21:22;;;;;;;2.80;1.90;;;;;;;;;;4970118;28;20113;-71
2021/08/04 05:23:47;;;;;;;4.40;1.90;;;;;;;;;;4964279;28;20306;-70
2021/08/04 05:26:12;;;;;;;2.58;1.80;;;;;;;;;;4976898;28;20541;-70
2021/08/04 05:28:37;;;;;;;3.85;1.90;;;;;;;;;;4969792;28;20074;-70
2021/08/04 05:31:02;;;;;;;3.90;1.70;;;;;;;;;;4972253;28;20043;-71
2021/08/04 05:33:28;;;;;;;3.17;1.67;;;;;;;;;;4970981;28;20409;-71
2021/08/04 05:35:53;;;;;;;3.97;1.77;;;;;;;;;;4970069;28;20383;-70
2021/08/04 05:38:18;;;;;;;3.47;1.80;;;;;;;;;;4969585;28;20069;-70
2021/08/04 05:40:43;;;;;;;3.25;1.83;;;;;;;;;;4970673;28;20700;-70
2021/08/04 05:43:08;;;;;;;4.53;2.10;;;;;;;;;;4968940;28;20043;-71
2021/08/04 05:45:36;;;;;;;4.63;1.48;;;;;;;;;;4967912;28;20094;-70
2021/08/04 05:48:01;;;;;;;3.65;1.77;;;;;;;;;;4972211;28;20030;-70
2021/08/04 05:50:26;;;;;;;3.13;1.70;;;;;;;;;;4969027;28;20081;-70
2021/08/04 05:52:51;;;;;;;3.13;1.40;;;;;;;;;;4969480;28;20364;-70
2021/08/04 05:55:16;;;;;;;2.95;1.70;;;;;;;;;;4969533;28;20346;-71
2021/08/04 05:57:43;;;;;;;2.25;1.30;;;;;;;;;;4969559;28;20065;-71
2021/08/04 06:00:09;;;;;;;3.28;1.75;;;;;;;;;;4973552;28;20022;-70
2021/08/04 06:02:34;;;;;;;3.03;1.70;;;;;;;;;;4969828;28;20085;-71
2021/08/04 06:04:59;;;;;;;5.32;1.63;;;;;;;;;;4969895;28;20018;-70
2021/08/04 06:07:24;;;;;;;2.55;1.60;;;;;;;;;;4969458;28;20031;-71
2021/08/04 06:09:50;;;;;;;2.85;1.63;;;;;;;;;;4969086;28;20041;-70
2021/08/04 06:12:15;;;;;;;3.00;1.75;;;;;;;;;;4974373;28;20038;-71
2021/08/04 06:14:40;;;;;;;4.22;1.50;;;;;;;;;;4972493;28;20462;-72
2021/08/04 06:17:05;;;;;;;2.77;1.63;;;;;;;;;;4969279;28;20042;-72
2021/08/04 06:19:30;;;;;;;3.08;1.50;;;;;;;;;;4973034;28;20280;-72
2021/08/04 06:21:57;;;;;;;2.22;1.40;;;;;;;;;;4970428;28;20059;-70
2021/08/04 06:24:23;;;;;;;10.38;1.80;;;;;;;;;;4969924;28;20027;-71
2021/08/04 06:26:48;;;;;;;3.00;1.40;;;;;;;;;;4969621;28;20540;-71
2021/08/04 06:29:13;;;;;;;4.53;1.40;;;;;;;;;;4970123;28;20577;-71
2021/08/04 06:31:38;;;;;;;5.50;1.70;;;;;;;;;;4966645;28;20026;-71
2021/08/04 06:34:03;;;;;;;2.38;1.50;;;;;;;;;;4969598;28;20420;-70
2021/08/04 06:36:29;;;;;;;2.67;1.48;;;;;;;;;;4969206;28;20030;-71
2021/08/04 06:38:54;;;;;;;2.72;1.50;;;;;;;;;;4962958;28;20110;-70
2021/08/04 06:41:19;;;;;;;1.88;1.08;;;;;;;;;;4969492;28;20390;-70
2021/08/04 06:43:45;;;;;;;3.33;1.13;;;;;;;;;;4968247;28;20144;-71
2021/08/04 06:46:11;;;;;;;1.38;1.10;;;;;;;;;;4966691;28;20243;-71
2021/08/04 06:48:36;;;;;;;2.25;1.27;;;;;;;;;;4971514;28;20493;-71
2021/08/04 06:51:01;;;;;;;2.38;1.40;;;;;;;;;;4968563;28;20106;-71
2021/08/04 06:53:26;;;;;;;2.83;1.27;;;;;;;;;;4971722;28;20616;-68
2021/08/04 06:55:52;;;;;;;3.60;1.50;;;;;;;;;;4974369;28;20062;-68
2021/08/04 06:58:17;;;;;;;3.70;1.40;;;;;;;;;;4982202;28;20273;-67
2021/08/04 07:00:42;;;;;;;3.57;1.30;;;;;;;;;;4976724;28;20378;-67
2021/08/04 07:03:07;;;;;;;2.45;1.40;;;;;;;;;;4972631;28;20314;-68
2021/08/04 07:05:33;;;;;;;3.20;1.40;;;;;;;;;;4973736;28;20386;-67
2021/08/04 07:07:58;;;;;;;2.30;1.50;;;;;;;;;;4972718;28;20122;-68
2021/08/04 07:10:23;;;;;;;1.42;0.95;;;;;;;;;;4971289;28;20487;-67
2021/08/04 07:12:48;;;;;;;2.80;1.00;;;;;;;;;;4972493;28;20114;-69
2021/08/04 07:15:14;;;;;;;2.55;1.10;;;;;;;;;;4972818;28;20278;-68
2021/08/04 07:17:43;;;;;;;2.10;1.20;;;;;;;;;;4973043;28;20733;-67
2021/08/04 07:20:08;;;;;;;1.77;1.20;;;;;;;;;;4972685;28;20037;-67
2021/08/04 07:22:33;;;;;;;2.40;1.05;;;;;;;;;;4972849;28;20039;-67
2021/08/04 07:24:58;;;;;;;1.95;1.20;;;;;;;;;;4976472;28;20033;-68
2021/08/04 07:27:24;;;;;;;2.13;1.00;;;;;;;;;;4978030;28;20026;-68
2021/08/04 07:29:49;;;;;;;2.73;1.10;;;;;;;;;;4974807;28;20341;-66
2021/08/04 07:32:14;;;;;;;2.13;1.00;;;;;;;;;;4972776;28;20282;-67
2021/08/04 07:34:39;;;;;;;3.47;1.35;;;;;;;;;;4972698;28;20285;-67
2021/08/04 07:37:04;;;;;;;4.70;1.40;;;;;;;;;;4972408;28;20047;-67
2021/08/04 07:39:30;;;;;;;1.73;0.95;;;;;;;;;;4972526;28;20286;-67
2021/08/04 07:41:55;;;;;;;2.15;1.10;;;;;;;;;;4970465;28;20055;-68
2021/08/04 07:44:20;;;;;;;2.17;1.10;;;;;;;;;;4970324;28;20077;-69
2021/08/04 07:46:45;;;;;;;1.05;0.85;;;;;;;;;;4971951;28;20030;-68
2021/08/04 07:49:10;;;;;;;3.00;1.00;;;;;;;;;;4970906;28;20094;-67
2021/08/04 07:51:36;;;;;;;1.70;0.80;;;;;;;;;;4973770;28;20732;-67
2021/08/04 07:54:01;;;;;;;1.08;0.75;;;;;;;;;;4973914;28;20031;-67
2021/08/04 07:56:26;;;;;;;3.10;1.30;;;;;;;;;;4972610;28;20082;-66
2021/08/04 07:58:51;;;;;;;1.20;0.80;;;;;;;;;;4975022;28;20833;-68
2021/08/04 08:01:17;;;;;;;2.33;0.88;;;;;;;;;;4967152;28;20360;-68
2021/08/04 08:03:42;;;;;;;1.52;0.88;;;;;;;;;;4970431;28;20077;-68
2021/08/04 08:06:07;;;;;;;1.45;0.73;;;;;;;;;;4970885;28;20042;-67
2021/08/04 08:08:32;;;;;;;1.42;0.80;;;;;;;;;;4972158;28;20766;-68
2021/08/04 08:10:58;;;;;;;2.03;1.00;;;;;;;;;;4969767;28;20054;-67
2021/08/04 08:13:23;;;;;;;1.83;0.90;;;;;;;;;;4979086;28;21055;-67
2021/08/04 08:15:49;;;;;;;1.90;0.90;;;;;;;;;;4980821;28;20034;-68
2021/08/04 08:18:14;;;;;;;1.35;0.80;;;;;;;;;;4980505;28;20258;-67
2021/08/04 08:20:40;;;;;;;2.10;0.90;;;;;;;;;;4977435;28;20114;-67
2021/08/04 08:23:06;;;;;;;1.45;0.93;;;;;;;;;;4981110;28;20106;-69
2021/08/04 08:25:31;;;;;;;3.67;0.80;;;;;;;;;;4971034;28;20042;-67
2021/08/04 08:27:56;;;;;;;3.10;1.20;;;;;;;;;;4971587;28;20030;-67
2021/08/04 08:30:22;;;;;;;1.55;0.95;;;;;;;;;;4972124;28;20037;-67
2021/08/04 08:32:48;;;;;;;1.40;0.90;;;;;;;;;;4967395;28;20056;-68
2021/08/04 08:35:15;;;;;;;1.67;0.90;;;;;;;;;;4966969;28;20050;-68
2021/08/04 08:37:40;;;;;;;2.22;1.00;;;;;;;;;;4966909;28;20077;-67
2021/08/04 08:40:05;;;;;;;1.90;0.80;;;;;;;;;;4970454;28;20031;-67
2021/08/04 08:42:31;;;;;;;3.65;0.80;;;;;;;;;;4970789;28;20074;-67
2021/08/04 08:44:57;;;;;;;2.83;0.98;;;;;;;;;;4969223;28;20019;-67
2021/08/04 08:47:22;;;;;;;3.40;1.00;;;;;;;;;;4970467;28;20014;-67
2021/08/04 08:49:48;;;;;;;1.05;0.80;;;;;;;;;;4971597;28;20042;-67
2021/08/04 08:52:13;;;;;;;1.17;0.80;;;;;;;;;;4964259;28;20050;-67
2021/08/04 08:54:38;;;;;;;1.67;0.60;;;;;;;;;;4962989;28;20042;-67
2021/08/04 08:57:03;;;;;;;1.70;0.80;;;;;;;;;;4973739;28;20041;-66
2021/08/04 08:59:29;;;;;;;1.42;0.98;;;;;;;;;;4970094;28;20023;-67
2021/08/04 09:01:54;;;;;;;2.03;0.90;;;;;;;;;;4963427;28;20030;-68
2021/08/04 09:04:19;;;;;;;0.90;0.70;;;;;;;;;;4970731;28;20618;-67
2021/08/04 09:06:59;;;;;;;1.63;0.75;;;;;;;;;;4970529;28;20033;-67
2021/08/04 09:09:24;;;;;;;1.42;0.90;;;;;;;;;;4970295;28;20029;-67
2021/08/04 09:11:51;;;;;;;1.65;0.70;;;;;;;;;;4968564;28;20022;-67
2021/08/04 09:14:16;;;;;;;0.63;0.60;;;;;;;;;;4968508;28;20390;-66
2021/08/04 09:16:43;;;;;;;2.20;0.80;;;;;;;;;;4969264;28;20023;-67
2021/08/04 09:19:19;;;;;;;1.00;0.75;;;;;;;;;;4974500;28;20022;-68
2021/08/04 09:22:02;;;;;;;4.35;0.80;;;;;;;;;;4970881;28;20129;-64
2021/08/04 09:24:27;;;;;;;1.23;0.75;;;;;;;;;;4970502;28;20097;-64
2021/08/04 09:26:52;;;;;;;1.80;0.90;;;;;;;;;;4972783;28;20054;-65
2021/08/04 09:29:17;;;;;;;1.40;1.00;;;;;;;;;;4970181;28;20285;-64
2021/08/04 09:31:43;;;;;;;1.67;1.00;;;;;;;;;;4970796;28;20282;-64
2021/08/04 09:34:28;;;;;;;1.35;0.75;;;;;;;;;;4972585;28;20369;-63
2021/08/04 09:36:59;;;;;;;1.08;0.60;;;;;;;;;;4965709;28;20174;-64
2021/08/04 09:39:25;;;;;;;1.23;0.75;;;;;;;;;;4963479;28;20371;-64
2021/08/04 09:41:50;;;;;;;1.55;0.80;;;;;;;;;;4968026;28;20029;-63
2021/08/04 09:44:15;;;;;;;2.65;0.90;;;;;;;;;;4967996;28;20046;-64
2021/08/04 09:46:40;;;;;;;1.77;0.90;;;;;;;;;;4967404;28;20043;-64
2021/08/04 09:49:13;;;;;;;1.50;0.90;;;;;;;;;;4968886;28;20476;-64
2021/08/04 09:51:38;;;;;;;1.88;1.17;;;;;;;;;;4969345;28;20762;-65
2021/08/04 09:54:07;;;;;;;0.85;0.63;;;;;;;;;;4969244;28;20122;-63
2021/08/04 09:56:32;;;;;;;1.45;0.80;;;;;;;;;;4968451;28;20045;-65
2021/08/04 09:59:07;;;;;;;1.55;0.77;;;;;;;;;;4965493;28;20023;-64
2021/08/04 10:01:39;;;;;;;1.05;0.73;;;;;;;;;;4967325;28;20027;-64
2021/08/04 10:04:05;;;;;;;1.30;0.70;;;;;;;;;;4967587;28;20023;-63
2021/08/04 10:06:31;;;;;;;1.98;0.90;;;;;;;;;;4968800;28;21435;-64
2021/08/04 10:08:57;;;;;;;2.55;0.85;;;;;;;;;;4966840;28;20479;-64
2021/08/04 10:11:23;;;;;;;1.95;0.77;;;;;;;;;;4966398;28;20085;-64
2021/08/04 10:13:48;;;;;;;1.80;0.90;;;;;;;;;;4959718;28;20479;-64
2021/08/04 10:16:14;;;;;;;2.15;0.80;;;;;;;;;;4968117;28;20534;-63
2021/08/04 10:18:39;;;;;;;2.20;1.20;;;;;;;;;;4967065;28;20027;-64
2021/08/04 10:21:10;;;;;;;1.77;0.93;;;;;;;;;;4962737;28;20027;-64
2021/08/04 10:23:36;;;;;;;1.50;0.90;;;;;;;;;;4964626;28;20074;-64
2021/08/04 10:26:02;;;;;;;1.30;0.73;;;;;;;;;;4970178;28;20054;-64
2021/08/04 10:28:28;;;;;;;1.63;0.90;;;;;;;;;;4965534;28;20029;-65
2021/08/04 10:30:53;;;;;;;1.88;1.00;;;;;;;;;;4973637;28;20030;-67
2021/08/04 10:33:18;;;;;;;1.90;0.90;;;;;;;;;;4970178;28;20129;-67
2021/08/04 10:35:45;;;;;;;1.33;0.90;;;;;;;;;;4973733;28;20037;-67
2021/08/04 10:38:15;;;;;;;1.35;0.88;;;;;;;;;;4972960;28;20398;-67
2021/08/04 10:40:40;;;;;;;0.95;0.70;;;;;;;;;;4971648;28;20066;-68
2021/08/04 10:43:05;;;;;;;2.58;0.80;;;;;;;;;;4974025;28;20051;-67
2021/08/04 10:45:31;;;;;;;1.13;0.70;;;;;;;;;;4972304;28;20115;-68
2021/08/04 10:48:26;;;;;;;1.63;0.85;;;;;;;;;;4972885;28;20455;-67
2021/08/04 10:51:10;;;;;;;1.33;0.60;;;;;;;;;;4930538;29;20038;-67
2021/08/04 10:53:55;;;;;;;2.25;1.00;;;;;;;;;;4931871;29;20062;-67
2021/08/04 10:56:20;;;;;;;1.10;0.80;;;;;;;;;;4931589;29;20317;-67
2021/08/04 10:59:05;;;;;;;1.50;0.80;;;;;;;;;;4932547;29;20114;-66
2021/08/04 11:01:30;;;;;;;1.92;0.73;;;;;;;;;;4932458;29;20303;-66
2021/08/04 11:03:56;;;;;;;1.70;0.70;;;;;;;;;;4932567;29;20467;-67
2021/08/04 11:06:21;;;;;;;1.15;0.70;;;;;;;;;;4932152;29;20306;-66
2021/08/04 11:08:47;;;;;;;1.40;0.90;;;;;;;;;;4932624;29;20036;-66
2021/08/04 11:11:33;;;;;;;3.17;0.90;;;;;;;;;;4932135;29;20282;-68
2021/08/04 11:13:58;;;;;;;1.52;0.73;;;;;;;;;;4931870;29;20816;-67
2021/08/04 11:16:26;;;;;;;0.77;0.60;;;;;;;;;;4932316;29;20038;-68
2021/08/04 11:19:00;;;;;;;1.05;0.70;;;;;;;;;;4932169;29;20740;-68
2021/08/04 11:21:25;;;;;;;1.45;0.70;;;;;;;;;;4932020;29;20044;-68
2021/08/04 11:23:50;;;;;;;0.98;0.65;;;;;;;;;;4932244;29;20023;-67
2021/08/04 11:26:23;;;;;;;2.25;0.60;;;;;;;;;;4934094;29;20480;-68
2021/08/04 11:28:48;;;;;;;1.33;0.50;;;;;;;;;;4971834;28;20641;-67
2021/08/04 11:31:14;;;;;;;2.97;0.80;;;;;;;;;;4972963;28;20031;-67
2021/08/04 11:33:39;;;;;;;1.60;1.00;;;;;;;;;;4973103;28;20030;-67
2021/08/04 11:36:11;;;;;;;2.78;0.90;;;;;;;;;;4972845;28;20027;-69
2021/08/04 11:38:38;;;;;;;1.25;0.80;;;;;;;;;;4973228;28;20019;-66
2021/08/04 11:41:18;;;;;;;0.82;0.65;;;;;;;;;;4972842;28;20015;-68
2021/08/04 11:43:44;;;;;;;1.13;0.70;;;;;;;;;;4972906;28;20120;-68
2021/08/04 11:46:09;;;;;;;2.08;1.00;;;;;;;;;;4973126;28;20057;-66
2021/08/04 11:48:51;;;;;;;1.20;0.88;;;;;;;;;;4973107;28;20391;-67
2021/08/04 11:51:16;;;;;;;1.88;1.00;;;;;;;;;;4972278;28;20023;-67
2021/08/04 11:53:42;;;;;;;2.85;0.98;;;;;;;;;;4973172;28;20069;-67
2021/08/04 11:56:07;;;;;;;1.67;0.60;;;;;;;;;;4966016;28;20097;-67
2021/08/04 11:58:32;;;;;;;1.50;0.70;;;;;;;;;;4972551;28;20011;-66
2021/08/04 12:01:16;;;;;;;2.72;0.98;;;;;;;;;;4972594;28;20373;-67
2021/08/04 12:03:41;;;;;;;0.82;0.65;;;;;;;;;;4967209;28;20026;-68
2021/08/04 12:06:13;;;;;;;1.58;0.80;;;;;;;;;;4972591;28;20109;-67
2021/08/04 12:08:39;;;;;;;1.48;0.70;;;;;;;;;;4972505;28;20538;-68
2021/08/04 12:11:04;;;;;;;2.53;1.00;;;;;;;;;;4972160;28;20031;-69
2021/08/04 12:13:29;;;;;;;1.40;0.80;;;;;;;;;;4972534;28;20046;-67
2021/08/04 12:15:58;;;;;;;2.53;1.10;;;;;;;;;;4971832;28;20841;-67
2021/08/04 12:18:23;;;;;;;1.77;0.90;;;;;;;;;;4972503;28;20320;-67
2021/08/04 12:20:48;;;;;;;1.08;0.60;;;;;;;;;;4972320;28;20031;-67
2021/08/04 12:23:18;;;;;;;1.90;0.90;;;;;;;;;;4972318;28;20041;-68
2021/08/04 12:25:43;;;;;;;1.67;0.90;;;;;;;;;;4973126;28;20431;-67
2021/08/04 12:28:09;;;;;;;2.30;0.80;;;;;;;;;;4971861;28;20096;-67
2021/08/04 12:30:36;;;;;;;1.27;0.85;;;;;;;;;;4971752;28;20038;-68
2021/08/04 12:33:17;;;;;;;3.35;0.82;;;;;;;;;;4971926;28;20038;-67
2021/08/04 12:36:02;;;;;;;1.60;1.00;;;;;;;;;;4966594;28;20030;-68
2021/08/04 12:38:29;;;;;;;2.10;0.75;;;;;;;;;;4971824;28;20063;-69
2021/08/04 12:40:55;;;;;;;1.63;0.77;;;;;;;;;;4971811;28;20023;-67
2021/08/04 12:43:24;;;;;;;1.90;0.95;;;;;;;;;;4971666;28;20114;-68
2021/08/04 12:45:50;;;;;;;1.52;0.80;;;;;;;;;;4971207;28;20562;-67
2021/08/04 12:48:17;;;;;;;1.75;0.98;;;;;;;;;;4987087;28;20474;-67
2021/08/04 12:50:48;;;;;;;2.15;0.80;;;;;;;;;;4971107;28;20026;-67
2021/08/04 12:53:22;;;;;;;1.52;1.08;;;;;;;;;;4971497;28;20022;-69
2021/08/04 12:56:04;;;;;;;1.70;1.02;;;;;;;;;;4976012;28;20026;-67
2021/08/04 12:58:29;;;;;;;3.38;1.00;;;;;;;;;;4970160;28;20031;-67
2021/08/04 13:00:54;;;;;;;1.33;0.80;;;;;;;;;;4971185;28;20029;-68
2021/08/04 13:03:32;;;;;;;1.27;0.80;;;;;;;;;;4971663;28;20027;-67
2021/08/04 13:05:58;;;;;;;1.10;0.82;;;;;;;;;;4971258;28;20106;-68
2021/08/04 13:08:27;;;;;;;2.25;0.90;;;;;;;;;;4971777;28;20023;-68
2021/08/04 13:10:53;;;;;;;1.63;0.93;;;;;;;;;;4971498;28;20023;-66
2021/08/04 13:13:18;;;;;;;3.30;1.10;;;;;;;;;;4971159;28;20545;-67
2021/08/04 13:15:44;;;;;;;2.92;1.30;;;;;;;;;;4970788;28;20266;-67
2021/08/04 13:18:09;;;;;;;2.35;1.08;;;;;;;;;;4971156;28;20109;-68
2021/08/04 13:20:38;;;;;;;1.52;0.90;;;;;;;;;;4971312;28;20126;-69
2021/08/04 13:23:04;;;;;;;3.28;1.63;;;;;;;;;;4970817;28;20420;-67
2021/08/04 13:25:30;;;;;;;2.35;1.42;;;;;;;;;;4972336;28;20046;-68
2021/08/04 13:27:56;;;;;;;3.05;1.20;;;;;;;;;;4970869;28;20451;-67
2021/08/04 13:30:23;;;;;;;2.58;1.27;;;;;;;;;;4971059;28;20026;-68
2021/08/04 13:32:48;;;;;;;2.55;1.50;;;;;;;;;;4971320;28;20414;-68
2021/08/04 13:35:13;;;;;;;2.53;1.00;;;;;;;;;;4971017;28;20042;-68
2021/08/04 13:37:38;;;;;;;2.45;1.30;;;;;;;;;;4971284;28;20030;-67
2021/08/04 13:40:04;;;;;;;2.08;1.20;;;;;;;;;;4970667;28;20514;-66
2021/08/04 13:42:36;;;;;;;2.95;1.25;;;;;;;;;;4970580;28;20023;-67
2021/08/04 13:45:02;;;;;;;3.05;1.10;;;;;;;;;;4968483;28;20023;-67
2021/08/04 13:47:27;;;;;;;2.65;1.10;;;;;;;;;;4970553;28;20105;-67
2021/08/04 13:49:56;;;;;;;4.22;1.05;;;;;;;;;;4970911;28;20482;-68
2021/08/04 13:52:21;;;;;;;5.35;1.08;;;;;;;;;;4970462;28;20494;-68
2021/08/04 13:54:46;;;;;;;2.77;1.03;;;;;;;;;;4971013;28;20035;-67
2021/08/04 13:57:11;;;;;;;2.40;1.30;;;;;;;;;;4974476;28;20382;-67
2021/08/04 13:59:36;;;;;;;2.50;1.20;;;;;;;;;;4970544;28;20278;-66
2021/08/04 14:02:01;;;;;;;1.90;1.20;;;;;;;;;;4968995;28;20699;-67
2021/08/04 14:04:27;;;;;;;1.90;1.05;;;;;;;;;;4970540;28;20262;-69
2021/08/04 14:06:52;;;;;;;1.57;1.07;;;;;;;;;;4969259;28;20125;-68
2021/08/04 14:09:17;;;;;;;4.43;1.10;;;;;;;;;;4970270;28;20267;-67
2021/08/04 14:11:42;;;;;;;2.33;1.30;;;;;;;;;;4969984;28;20357;-67
2021/08/04 14:14:09;;;;;;;2.60;1.45;;;;;;;;;;4970458;28;20065;-67
2021/08/04 14:16:34;;;;;;;1.63;1.13;;;;;;;;;;4970359;28;20118;-68
2021/08/04 14:19:00;;;;;;;2.40;1.00;;;;;;;;;;4970024;28;20511;-67
2021/08/04 14:21:25;;;;;;;4.50;1.17;;;;;;;;;;4970340;28;20019;-68
2021/08/04 14:23:50;;;;;;;1.55;0.90;;;;;;;;;;4970202;28;20023;-67
2021/08/04 14:26:15;;;;;;;2.40;1.30;;;;;;;;;;4971629;28;20023;-68
2021/08/04 14:28:40;;;;;;;2.23;1.20;;;;;;;;;;4969993;28;20439;-67
2021/08/04 14:31:05;;;;;;;2.60;1.23;;;;;;;;;;4970038;28;20369;-67
2021/08/04 14:33:31;;;;;;;2.03;1.23;;;;;;;;;;4970058;28;20391;-67
2021/08/04 14:35:56;;;;;;;2.10;1.20;;;;;;;;;;4970092;28;20320;-68
2021/08/04 14:38:21;;;;;;;2.97;1.10;;;;;;;;;;4970184;28;20273;-67
2021/08/04 14:40:46;;;;;;;1.73;1.30;;;;;;;;;;4969962;28;20471;-67